X  SluitMETAR luchtvaart weer gegevens      EBBR Brussels Airport

Temperatuur

13°C Temperatuur

10°C Dauwpunt

82% Vochtigheid



Wind

 0 KM/U

 0 MPH

 0 M/S

 0 KTS



Kalm
Pal Noord
Huidig weer

Helder Helder
Luchtdruk 1024.92 (hPa) - 30.27 (in)
Zicht 6.2 (mi) - 10 (km)
Vliegveld
Vliegveld code EBBR

Locatie Brussels Airport 10 (km)

Metar:
EBBR 130520Z 00000KT CAVOK 13/10 Q1025 NOSIG

Tijd: 13-07-2020 07:20